createdAt,value
2018-04-08T00:02:56.951Z,81.89
2018-04-08T00:06:00.331Z,81.73
2018-04-08T00:09:03.684Z,81.73
2018-04-08T00:12:07.046Z,81.88
2018-04-08T00:15:11.898Z,82.14
2018-04-08T00:18:16.129Z,82.37
2018-04-08T00:21:20.484Z,82.53
2018-04-08T00:24:23.843Z,82.48
2018-04-08T00:27:28.091Z,82.30
2018-04-08T00:30:31.446Z,81.88
2018-04-08T00:33:34.797Z,81.89
2018-04-08T00:36:38.157Z,81.38
2018-04-08T00:39:42.355Z,81.52
2018-04-08T00:42:45.809Z,81.74
2018-04-08T00:45:49.181Z,81.59
2018-04-08T00:48:53.305Z,81.86
2018-04-08T00:51:57.485Z,82.21
2018-04-08T00:55:00.860Z,82.46
2018-04-08T00:58:04.235Z,82.73
2018-04-08T01:01:07.757Z,83.02
2018-04-08T01:04:11.115Z,83.06
2018-04-08T01:07:15.246Z,83.03
2018-04-08T01:10:18.606Z,82.91
2018-04-08T01:13:21.966Z,83.08
2018-04-08T01:16:26.018Z,83.33
2018-04-08T01:19:30.875Z,83.82
2018-04-08T01:22:35.006Z,83.51
2018-04-08T01:25:38.368Z,82.71
2018-04-08T01:28:43.228Z,83.00
2018-04-08T01:31:47.377Z,83.41
2018-04-08T01:34:50.721Z,83.89
2018-04-08T01:37:54.089Z,84.42
2018-04-08T01:40:57.442Z,84.43
2018-04-08T01:44:01.591Z,84.57
2018-04-08T01:47:04.949Z,84.74
2018-04-08T01:50:08.365Z,84.67
2018-04-08T01:53:12.486Z,83.67
2018-04-08T01:56:15.836Z,83.65
2018-04-08T01:59:19.220Z,83.82
2018-04-08T02:02:22.574Z,84.06
2018-04-08T02:05:26.699Z,84.30
2018-04-08T02:08:30.054Z,84.82
2018-04-08T02:11:34.201Z,85.35
2018-04-08T02:14:38.313Z,85.69
2018-04-08T02:17:41.775Z,85.96
2018-04-08T02:20:45.149Z,86.02
2018-04-08T02:23:48.739Z,86.14
2018-04-08T02:26:52.096Z,85.82
2018-04-08T02:29:55.458Z,85.71
2018-04-08T02:32:58.829Z,84.95
2018-04-08T02:36:03.005Z,84.86
2018-04-08T02:39:06.382Z,84.99
2018-04-08T02:42:09.761Z,85.24
2018-04-08T02:45:13.225Z,85.43
2018-04-08T02:48:16.578Z,85.67
2018-04-08T02:51:19.944Z,84.86
2018-04-08T02:54:24.079Z,83.66
2018-04-08T02:57:27.405Z,83.95
2018-04-08T03:00:30.841Z,84.49
2018-04-08T03:03:34.203Z,84.98
2018-04-08T03:06:37.578Z,85.27
2018-04-08T03:09:40.936Z,85.51
2018-04-08T03:12:45.070Z,85.61
2018-04-08T03:15:49.195Z,85.78
2018-04-08T03:18:52.657Z,85.87
2018-04-08T03:21:56.947Z,86.19
2018-04-08T03:25:00.317Z,86.03
2018-04-08T03:28:03.731Z,86.02
2018-04-08T03:31:07.082Z,85.98
2018-04-08T03:34:10.488Z,85.92
2018-04-08T03:37:13.837Z,85.62
2018-04-08T03:40:17.192Z,85.70
2018-04-08T03:43:20.547Z,85.91
2018-04-08T03:46:24.017Z,86.18
2018-04-08T03:49:27.356Z,86.39
2018-04-08T03:52:30.762Z,86.61
2018-04-08T03:55:34.108Z,86.67
2018-04-08T03:58:38.261Z,86.77
2018-04-08T04:01:41.735Z,86.40
2018-04-08T04:04:45.301Z,85.81
2018-04-08T04:07:48.647Z,85.77
2018-04-08T04:10:51.997Z,85.95
2018-04-08T04:13:56.118Z,85.71
2018-04-08T04:16:59.494Z,85.35
2018-04-08T04:20:20.830Z,85.43
2018-04-08T04:23:42.078Z,85.61
2018-04-08T04:26:46.203Z,86.07
2018-04-08T04:29:49.595Z,86.97
2018-04-08T04:32:53.711Z,87.47
2018-04-08T04:35:57.909Z,87.70
2018-04-08T04:39:01.275Z,88.03
2018-04-08T04:42:04.656Z,88.14
2018-04-08T04:45:08.022Z,88.23
2018-04-08T04:48:12.144Z,88.13
2018-04-08T04:51:16.305Z,87.90
2018-04-08T04:54:19.635Z,87.79
2018-04-08T04:57:23.107Z,87.77
2018-04-08T05:00:26.580Z,87.85
2018-04-08T05:03:29.955Z,87.87
2018-04-08T05:06:34.077Z,87.70
2018-04-08T05:09:38.273Z,86.75
2018-04-08T05:12:41.638Z,84.67
2018-04-08T05:15:44.999Z,84.82
2018-04-08T05:18:49.126Z,84.92
2018-04-08T05:21:52.552Z,85.00
2018-04-08T05:24:55.906Z,84.64
2018-04-08T05:28:00.028Z,84.60
2018-04-08T05:31:04.154Z,84.50
2018-04-08T05:34:07.505Z,84.31
2018-04-08T05:37:10.868Z,83.86
2018-04-08T05:40:14.235Z,82.95
2018-04-08T05:43:18.362Z,82.74
2018-04-08T05:46:21.764Z,82.30
2018-04-08T05:49:25.300Z,82.00
2018-04-08T05:52:28.655Z,81.72
2018-04-08T05:55:32.800Z,81.20
2018-04-08T05:58:36.149Z,80.08
2018-04-08T06:01:39.597Z,80.08
2018-04-08T06:04:43.062Z,79.95
2018-04-08T06:07:47.233Z,79.82
2018-04-08T06:10:50.598Z,80.30
2018-04-08T06:13:54.817Z,80.32
2018-04-08T06:16:58.941Z,80.33
2018-04-08T06:20:02.288Z,80.11
2018-04-08T06:23:05.646Z,79.68
2018-04-08T06:26:09.018Z,79.04
2018-04-08T06:29:13.135Z,78.42
2018-04-08T06:32:17.264Z,77.74
2018-04-08T06:35:21.389Z,76.91
2018-04-08T06:38:24.757Z,76.06
2018-04-08T06:41:28.119Z,76.02
2018-04-08T06:44:31.490Z,76.09
2018-04-08T06:47:34.851Z,75.57
2018-04-08T06:50:38.202Z,73.44
2018-04-08T06:53:41.580Z,72.14
2018-04-08T06:56:44.934Z,71.84
2018-04-08T06:59:49.101Z,71.06
2018-04-08T07:02:52.465Z,70.64
2018-04-08T07:05:55.812Z,70.16
2018-04-08T07:08:59.195Z,68.92
2018-04-08T07:12:02.586Z,68.48
2018-04-08T07:15:05.958Z,67.79
2018-04-08T07:18:09.358Z,66.85
2018-04-08T07:21:12.730Z,65.96
2018-04-08T07:24:16.092Z,65.79
2018-04-08T07:27:19.460Z,65.17
2018-04-08T07:30:22.892Z,64.60
2018-04-08T07:33:26.405Z,63.69
2018-04-08T07:36:29.789Z,63.08
2018-04-08T07:39:33.166Z,63.00
2018-04-08T07:42:36.539Z,63.07
2018-04-08T07:45:39.995Z,62.32
2018-04-08T07:48:43.354Z,61.70
2018-04-08T07:51:46.734Z,61.38
2018-04-08T07:54:50.091Z,61.06
2018-04-08T07:57:53.449Z,60.96
2018-04-08T08:00:56.884Z,60.64
2018-04-08T08:04:00.244Z,60.99
2018-04-08T08:07:03.621Z,59.83
2018-04-08T08:10:06.984Z,59.63
2018-04-08T08:13:10.359Z,59.59
2018-04-08T08:16:14.597Z,58.68
2018-04-08T08:19:18.760Z,58.15
2018-04-08T08:22:22.190Z,57.20
2018-04-08T08:25:25.579Z,57.26
2018-04-08T08:28:28.966Z,56.51
2018-04-08T08:31:32.363Z,55.85
2018-04-08T08:34:35.837Z,55.73
2018-04-08T08:37:39.215Z,54.40
2018-04-08T08:40:43.347Z,54.76
2018-04-08T08:43:46.704Z,53.64
2018-04-08T08:46:50.083Z,53.35
2018-04-08T08:49:53.556Z,53.76
2018-04-08T08:52:56.931Z,54.99
2018-04-08T08:56:01.084Z,54.70
2018-04-08T08:59:04.523Z,54.26
2018-04-08T09:02:07.962Z,54.22
2018-04-08T09:05:11.337Z,54.30
2018-04-08T09:08:15.468Z,53.41
2018-04-08T09:11:18.948Z,53.50
2018-04-08T09:14:22.398Z,52.75
2018-04-08T09:17:25.781Z,53.21
2018-04-08T09:20:31.035Z,53.71
2018-04-08T09:23:46.138Z,53.20
2018-04-08T09:26:49.527Z,53.73
2018-04-08T09:29:52.940Z,52.90
2018-04-08T09:32:56.323Z,53.21
2018-04-08T09:35:59.690Z,52.62
2018-04-08T09:39:03.078Z,51.63
2018-04-08T09:42:07.214Z,51.35
2018-04-08T09:45:10.765Z,51.16
2018-04-08T09:48:14.157Z,50.91
2018-04-08T09:51:17.570Z,51.19
2018-04-08T09:54:20.952Z,51.19
2018-04-08T09:57:24.313Z,50.98
2018-04-08T10:00:34.037Z,50.71
2018-04-08T10:03:46.560Z,49.76
2018-04-08T10:06:50.691Z,49.98
2018-04-08T10:09:54.205Z,49.42
2018-04-08T10:12:57.770Z,50.24
2018-04-08T10:16:01.899Z,50.04
2018-04-08T10:19:06.034Z,49.87
2018-04-08T10:22:09.421Z,48.53
2018-04-08T10:25:12.805Z,48.54
2018-04-08T10:28:17.009Z,48.47
2018-04-08T10:31:20.366Z,48.26
2018-04-08T10:34:23.737Z,48.85
2018-04-08T10:37:27.121Z,48.76
2018-04-08T10:40:31.283Z,48.46
2018-04-08T10:43:34.662Z,48.21
2018-04-08T10:46:38.098Z,48.64
2018-04-08T10:49:41.464Z,48.17
2018-04-08T10:52:44.881Z,47.83
2018-04-08T10:55:48.245Z,47.27
2018-04-08T10:58:52.378Z,46.19
2018-04-08T11:01:55.782Z,47.04
2018-04-08T11:04:59.194Z,46.81
2018-04-08T11:08:03.360Z,45.30
2018-04-08T11:11:06.758Z,46.30
2018-04-08T11:14:10.129Z,46.73
2018-04-08T11:17:13.524Z,47.05
2018-04-08T11:20:16.894Z,46.93
2018-04-08T11:23:20.333Z,47.04
2018-04-08T11:26:23.705Z,47.11
2018-04-08T11:29:27.102Z,46.71
2018-04-08T11:32:30.482Z,46.19
2018-04-08T11:35:34.715Z,47.13
2018-04-08T11:38:38.097Z,46.15
2018-04-08T11:41:42.394Z,45.67
2018-04-08T11:44:45.798Z,45.44
2018-04-08T11:47:49.165Z,44.60
2018-04-08T11:50:52.533Z,44.62
2018-04-08T11:53:56.042Z,44.48
2018-04-08T11:56:59.462Z,43.75
2018-04-08T12:00:02.835Z,43.95
2018-04-08T12:03:06.207Z,44.26
2018-04-08T12:06:10.351Z,44.37
2018-04-08T12:09:13.778Z,44.45
2018-04-08T12:12:17.223Z,44.49
2018-04-08T12:15:21.476Z,44.24
2018-04-08T12:18:24.850Z,43.85
2018-04-08T12:21:28.993Z,44.29
2018-04-08T12:24:32.375Z,44.53
2018-04-08T12:27:36.520Z,43.79
2018-04-08T12:30:39.897Z,44.11
2018-04-08T12:33:43.315Z,43.31
2018-04-08T12:36:46.761Z,43.19
2018-04-08T12:39:50.134Z,42.25
2018-04-08T12:42:53.598Z,41.91
2018-04-08T12:45:57.728Z,41.71
2018-04-08T12:49:01.090Z,41.30
2018-04-08T12:52:04.502Z,41.00
2018-04-08T12:55:08.643Z,40.67
2018-04-08T12:58:12.005Z,41.00
2018-04-08T13:01:15.558Z,40.77
2018-04-08T13:04:19.062Z,40.25
2018-04-08T13:07:22.466Z,40.54
2018-04-08T13:10:25.872Z,41.09
2018-04-08T13:13:29.217Z,40.94
2018-04-08T13:16:33.368Z,40.60
2018-04-08T13:19:36.723Z,40.26
2018-04-08T13:22:41.605Z,40.02
2018-04-08T13:25:45.874Z,40.96
2018-04-08T13:28:50.027Z,40.64
2018-04-08T13:31:53.408Z,41.29
2018-04-08T13:34:57.541Z,41.37
2018-04-08T13:38:00.914Z,41.66
2018-04-08T13:41:04.289Z,42.17
2018-04-08T13:44:07.746Z,41.90
2018-04-08T13:47:11.131Z,42.18
2018-04-08T13:50:15.294Z,42.87
2018-04-08T13:53:18.686Z,43.48
2018-04-08T13:56:22.133Z,43.66
2018-04-08T13:59:26.280Z,43.79
2018-04-08T14:02:29.741Z,44.03
2018-04-08T14:05:33.144Z,45.02
2018-04-08T14:08:36.597Z,45.60
2018-04-08T14:11:39.981Z,45.91
2018-04-08T14:14:43.376Z,46.25
2018-04-08T14:17:47.514Z,46.82
2018-04-08T14:20:51.012Z,47.41
2018-04-08T14:23:54.379Z,48.15
2018-04-08T14:26:58.512Z,48.67
2018-04-08T14:30:02.756Z,48.65
2018-04-08T14:33:06.146Z,48.25
2018-04-08T14:36:09.554Z,48.35
2018-04-08T14:39:12.952Z,48.19
2018-04-08T14:42:16.423Z,48.81
2018-04-08T14:45:20.536Z,49.72
2018-04-08T14:48:24.675Z,50.93
2018-04-08T14:51:28.051Z,51.40
2018-04-08T14:54:32.208Z,52.22
2018-04-08T14:57:35.699Z,52.33
2018-04-08T15:00:39.388Z,52.42
2018-04-08T15:03:43.742Z,52.71
2018-04-08T15:06:47.154Z,52.88
2018-04-08T15:09:50.517Z,53.19
2018-04-08T15:12:53.883Z,53.68
2018-04-08T15:15:57.271Z,53.59
2018-04-08T15:19:00.738Z,53.94
2018-04-08T15:22:04.123Z,53.79
2018-04-08T15:25:07.499Z,53.83
2018-04-08T15:28:11.675Z,54.37
2018-04-08T15:31:15.071Z,54.21
2018-04-08T15:34:18.456Z,53.94
2018-04-08T15:37:21.833Z,53.73
2018-04-08T15:40:25.236Z,53.55
2018-04-08T15:43:29.352Z,52.06
2018-04-08T15:46:32.737Z,50.24
2018-04-08T15:49:36.871Z,47.92
2018-04-08T15:52:40.276Z,45.51
2018-04-08T15:55:44.119Z,44.65
2018-04-08T15:58:47.611Z,44.26
2018-04-08T16:01:50.984Z,46.40
2018-04-08T16:04:54.367Z,48.16
2018-04-08T16:07:58.548Z,49.38
2018-04-08T16:11:01.922Z,50.00
2018-04-08T16:14:05.314Z,48.48
2018-04-08T16:17:08.662Z,47.63
2018-04-08T16:20:12.897Z,47.42
2018-04-08T16:23:17.080Z,48.67
2018-04-08T16:26:20.512Z,49.03
2018-04-08T16:29:23.872Z,48.59
2018-04-08T16:32:27.268Z,48.29
2018-04-08T16:35:30.618Z,47.86
2018-04-08T16:38:34.802Z,47.84
2018-04-08T16:41:38.164Z,48.80
2018-04-08T16:44:41.666Z,49.14
2018-04-08T16:47:45.121Z,50.14
2018-04-08T16:50:48.648Z,50.62
2018-04-08T16:53:52.808Z,50.77
2018-04-08T16:56:56.185Z,51.06
2018-04-08T16:59:59.662Z,51.74
2018-04-08T17:03:03.807Z,52.52
2018-04-08T17:06:07.179Z,53.30
2018-04-08T17:09:11.313Z,54.42
2018-04-08T17:12:14.737Z,55.66
2018-04-08T17:15:18.643Z,56.96
2018-04-08T17:18:22.078Z,57.91
2018-04-08T17:21:25.479Z,59.55
2018-04-08T17:24:28.851Z,60.66
2018-04-08T17:27:32.244Z,61.67
2018-04-08T17:30:35.639Z,62.54
2018-04-08T17:33:39.014Z,63.02
2018-04-08T17:36:43.175Z,63.58
2018-04-08T17:39:46.571Z,64.29
2018-04-08T17:42:50.911Z,64.62
2018-04-08T17:45:54.353Z,65.38
2018-04-08T17:48:58.545Z,65.47
2018-04-08T17:52:01.931Z,65.83
2018-04-08T17:55:05.314Z,66.31
2018-04-08T17:58:08.766Z,66.55
2018-04-08T18:01:12.135Z,66.66
2018-04-08T18:04:15.583Z,67.01
2018-04-08T18:07:19.711Z,66.88
2018-04-08T18:10:24.017Z,67.65
2018-04-08T18:13:27.412Z,67.76
2018-04-08T18:16:30.792Z,68.27
2018-04-08T18:19:34.207Z,68.65
2018-04-08T18:22:37.587Z,68.61
2018-04-08T18:25:40.970Z,68.90
2018-04-08T18:28:44.348Z,69.44
2018-04-08T18:31:47.726Z,69.99
2018-04-08T18:34:51.878Z,70.18
2018-04-08T18:37:55.267Z,70.31
2018-04-08T18:40:58.675Z,70.66
2018-04-08T18:44:02.084Z,70.48
2018-04-08T18:47:05.474Z,70.19
2018-04-08T18:50:08.849Z,69.74
2018-04-08T18:53:13.046Z,70.30
2018-04-08T18:56:16.468Z,70.24
2018-04-08T18:59:20.628Z,70.47
2018-04-08T19:02:24.058Z,70.43
2018-04-08T19:05:27.611Z,70.69
2018-04-08T19:08:31.031Z,71.21
2018-04-08T19:11:34.472Z,71.58
2018-04-08T19:14:43.302Z,71.70
2018-04-08T19:17:52.975Z,71.47
2018-04-08T19:20:56.343Z,71.72
2018-04-08T19:23:59.752Z,71.79
2018-04-08T19:27:03.890Z,71.92
2018-04-08T19:30:12.896Z,71.85
2018-04-08T19:33:17.151Z,71.86
2018-04-08T19:36:20.538Z,71.59
2018-04-08T19:39:23.922Z,71.46
2018-04-08T19:42:28.064Z,71.65
2018-04-08T19:45:31.434Z,71.74
2018-04-08T19:48:35.768Z,71.65
2018-04-08T19:51:39.992Z,71.66
2018-04-08T19:54:43.384Z,71.79
2018-04-08T19:57:47.546Z,71.95
2018-04-08T20:00:51.011Z,72.18
2018-04-08T20:03:54.544Z,72.29
2018-04-08T20:06:58.716Z,72.21
2018-04-08T20:10:02.147Z,72.20
2018-04-08T20:13:06.336Z,72.05
2018-04-08T20:16:09.777Z,71.92
2018-04-08T20:19:14.126Z,71.95
2018-04-08T20:22:17.521Z,71.90
2018-04-08T20:25:20.997Z,71.99
2018-04-08T20:28:25.127Z,71.87
2018-04-08T20:31:29.353Z,71.85
2018-04-08T20:34:32.808Z,71.92
2018-04-08T20:37:36.333Z,71.97
2018-04-08T20:40:40.498Z,72.07
2018-04-08T20:43:43.867Z,72.12
2018-04-08T20:46:47.382Z,72.17
2018-04-08T20:49:50.732Z,72.26
2018-04-08T20:52:54.119Z,72.28
2018-04-08T20:55:57.516Z,72.35
2018-04-08T20:59:00.897Z,72.55
2018-04-08T21:02:04.276Z,72.57
2018-04-08T21:05:07.707Z,72.61
2018-04-08T21:08:11.082Z,72.81
2018-04-08T21:11:14.467Z,73.01
2018-04-08T21:14:18.624Z,72.99
2018-04-08T21:17:22.003Z,73.16
2018-04-08T21:20:25.416Z,73.11
2018-04-08T21:23:28.794Z,73.11
2018-04-08T21:26:32.200Z,73.05
2018-04-08T21:29:35.595Z,73.09
2018-04-08T21:32:38.989Z,73.15
2018-04-08T21:35:42.349Z,73.43
2018-04-08T21:38:45.713Z,73.63
2018-04-08T21:41:49.077Z,73.65
2018-04-08T21:44:53.213Z,73.80
2018-04-08T21:47:56.582Z,73.75
2018-04-08T21:51:00.716Z,73.64
2018-04-08T21:54:04.093Z,73.76
2018-04-08T21:57:07.515Z,73.73
2018-04-08T22:00:11.914Z,74.02
2018-04-08T22:03:16.057Z,73.73
2018-04-08T22:06:19.413Z,73.66
2018-04-08T22:09:22.786Z,73.78
2018-04-08T22:12:26.177Z,74.06
2018-04-08T22:15:29.654Z,74.16
2018-04-08T22:18:33.210Z,74.08
2018-04-08T22:21:36.589Z,73.84
2018-04-08T22:24:39.964Z,73.74
2018-04-08T22:27:43.360Z,73.63
2018-04-08T22:30:46.743Z,73.69
2018-04-08T22:33:50.884Z,73.84
2018-04-08T22:36:54.258Z,73.82
2018-04-08T22:39:58.376Z,73.91
2018-04-08T22:43:02.521Z,74.02
2018-04-08T22:46:05.984Z,74.17
2018-04-08T22:49:09.359Z,74.29
2018-04-08T22:52:12.717Z,74.43
2018-04-08T22:55:16.082Z,74.58
2018-04-08T22:58:19.467Z,74.70
2018-04-08T23:01:22.819Z,74.91
2018-04-08T23:04:26.191Z,75.00
2018-04-08T23:07:30.374Z,75.00
2018-04-08T23:10:33.766Z,75.02
2018-04-08T23:13:37.141Z,75.16
2018-04-08T23:16:40.514Z,75.35
2018-04-08T23:19:44.675Z,75.37
2018-04-08T23:22:48.228Z,75.43
2018-04-08T23:25:52.567Z,75.21
2018-04-08T23:28:55.942Z,75.26
2018-04-08T23:31:59.319Z,75.47
2018-04-08T23:35:02.697Z,75.72
2018-04-08T23:38:06.086Z,75.70
2018-04-08T23:41:09.497Z,75.53
2018-04-08T23:44:12.866Z,75.31
2018-04-08T23:47:16.248Z,75.12
2018-04-08T23:50:20.401Z,75.04
2018-04-08T23:53:23.795Z,75.07
2018-04-08T23:56:27.153Z,75.18
2018-04-08T23:59:30.529Z,75.50
